Time;durP1;ratioP1;P1;durP2;ratioP2;P2;SDS_P1;SDS_P2;PMS_P1;PMS_P2;Temp;Humidity;BMP_temperature;BMP_pressure;BME280_temperature;BME280_humidity;BME280_pressure;Samples;Min_cycle;Max_cycle;Signal;HPM_P1;HPM_P2
2021/05/18 00:00:25;;;;;;;12.88;9.23;;;14.80;60.30;;;;;;1490019;39;20265;-57
2021/05/18 00:01:46;;;;;;;11.65;9.23;;;14.80;60.30;;;;;;1491248;39;20027;-58
2021/05/18 00:03:08;;;;;;;14.05;9.02;;;14.80;61.00;;;;;;1489783;39;20032;-59
2021/05/18 00:04:29;;;;;;;10.55;8.50;;;14.90;60.40;;;;;;1492250;39;20128;-59
2021/05/18 00:05:54;;;;;;;11.57;8.38;;;14.90;60.40;;;;;;1492023;39;20411;-58
2021/05/18 00:07:19;;;;;;;10.45;8.25;;;14.90;60.30;;;;;;1491243;39;20032;-59
2021/05/18 00:12:00;;;;;;;10.43;7.43;;;14.90;60.20;;;;;;1488519;39;20049;-58
2021/05/18 00:13:23;;;;;;;11.00;8.40;;;14.90;60.20;;;;;;1490805;39;20035;-57
2021/05/18 00:14:43;;;;;;;11.68;8.13;;;14.90;60.20;;;;;;1489460;39;20025;-56
2021/05/18 00:16:05;;;;;;;9.50;8.20;;;14.90;60.50;;;;;;1490428;39;20400;-58
2021/05/18 00:17:28;;;;;;;10.45;7.93;;;14.90;60.70;;;;;;1491639;39;20326;-56
2021/05/18 00:18:49;;;;;;;10.80;7.80;;;14.90;60.70;;;;;;1490986;39;20035;-56
2021/05/18 00:20:14;;;;;;;10.50;8.73;;;14.90;60.90;;;;;;1491694;39;20031;-56
2021/05/18 00:21:36;;;;;;;9.68;8.43;;;14.90;61.10;;;;;;1491532;39;20039;-57
2021/05/18 00:22:57;;;;;;;10.13;7.97;;;14.90;61.30;;;;;;1491229;39;20342;-58
2021/05/18 00:24:18;;;;;;;10.02;8.40;;;14.90;61.40;;;;;;1489837;39;20042;-57
2021/05/18 00:25:40;;;;;;;10.48;7.93;;;14.90;61.70;;;;;;1491281;39;20036;-57
2021/05/18 00:27:03;;;;;;;16.00;9.43;;;14.90;61.80;;;;;;1491163;39;20364;-57
2021/05/18 00:28:25;;;;;;;9.20;8.05;;;14.90;61.80;;;;;;1488335;39;20121;-56
2021/05/18 00:29:46;;;;;;;10.35;8.80;;;14.90;61.90;;;;;;1490841;39;20051;-57
2021/05/18 00:31:07;;;;;;;12.10;8.50;;;14.90;61.90;;;;;;1491699;39;20032;-58
2021/05/18 00:32:28;;;;;;;10.00;8.50;;;14.90;62.00;;;;;;1487024;40;20295;-56
2021/05/18 00:33:49;;;;;;;10.10;8.70;;;15.00;62.00;;;;;;1490226;39;20321;-56
2021/05/18 00:35:12;;;;;;;10.15;8.95;;;14.90;62.00;;;;;;1491481;39;20171;-55
2021/05/18 00:36:33;;;;;;;12.38;8.60;;;14.90;62.00;;;;;;1491589;39;20028;-55
2021/05/18 00:37:55;;;;;;;10.75;9.10;;;15.00;62.30;;;;;;1489637;39;20036;-55
2021/05/18 00:39:18;;;;;;;11.60;8.50;;;14.90;62.40;;;;;;1491860;39;20083;-55
2021/05/18 00:40:39;;;;;;;9.73;8.60;;;14.90;62.80;;;;;;1489488;39;20108;-56
2021/05/18 00:42:00;;;;;;;9.55;8.52;;;14.90;62.40;;;;;;1491236;39;20028;-57
2021/05/18 00:43:21;;;;;;;9.63;8.07;;;14.90;62.40;;;;;;1491540;39;20052;-56
2021/05/18 00:44:42;;;;;;;8.65;7.75;;;14.90;62.60;;;;;;1490333;39;20027;-57
2021/05/18 00:46:04;;;;;;;9.77;8.65;;;14.90;62.60;;;;;;1490001;39;20016;-56
2021/05/18 00:47:25;;;;;;;11.52;8.05;;;14.90;62.70;;;;;;1491385;39;20051;-56
2021/05/18 00:48:56;;;;;;;11.18;8.55;;;14.90;62.70;;;;;;1490224;39;20030;-56
2021/05/18 00:50:18;;;;;;;11.63;8.57;;;14.90;62.90;;;;;;1491346;39;20020;-56
2021/05/18 00:51:40;;;;;;;13.55;8.90;;;14.90;63.00;;;;;;1490736;39;20020;-55
2021/05/18 00:53:02;;;;;;;11.90;8.93;;;14.90;63.00;;;;;;1489354;39;20039;-57
2021/05/18 00:54:26;;;;;;;13.57;8.93;;;14.90;62.90;;;;;;1490330;39;20116;-57
2021/05/18 00:55:52;;;;;;;9.75;7.72;;;14.90;62.80;;;;;;1489988;39;20267;-57
2021/05/18 00:58:55;;;;;;;11.02;8.25;;;14.90;62.90;;;;;;1489967;39;20044;-56
2021/05/18 01:00:17;;;;;;;9.13;8.13;;;14.90;63.00;;;;;;1490968;39;20030;-57
2021/05/18 01:01:39;;;;;;;10.20;8.70;;;14.90;63.80;;;;;;1489522;39;20019;-55
2021/05/18 01:03:01;;;;;;;9.68;7.32;;;14.90;63.10;;;;;;1491272;39;20281;-56
2021/05/18 01:04:23;;;;;;;8.90;7.65;;;14.80;63.20;;;;;;1489313;39;20352;-56
2021/05/18 01:07:23;;;;;;;11.80;7.50;;;14.80;63.40;;;;;;1489609;39;20080;-56
2021/05/18 01:08:46;;;;;;;8.85;7.88;;;14.70;63.40;;;;;;1489961;39;20032;-55
2021/05/18 01:10:08;;;;;;;9.18;7.65;;;14.80;63.60;;;;;;1491042;39;20026;-57
2021/05/18 01:11:30;;;;;;;9.15;7.38;;;14.80;63.80;;;;;;1491201;39;20032;-56
2021/05/18 01:12:51;;;;;;;8.57;6.85;;;14.70;64.00;;;;;;1488809;39;20032;-57
2021/05/18 01:14:17;;;;;;;8.20;6.82;;;14.70;64.00;;;;;;1490263;39;20357;-56
2021/05/18 01:15:39;;;;;;;7.97;7.18;;;14.70;64.10;;;;;;1489839;39;20044;-56
2021/05/18 01:17:00;;;;;;;8.60;7.32;;;14.70;64.10;;;;;;1490535;39;20403;-55
2021/05/18 01:18:21;;;;;;;8.18;6.72;;;14.70;64.30;;;;;;1490124;39;20046;-56
2021/05/18 01:19:41;;;;;;;9.35;6.95;;;14.70;64.50;;;;;;1490925;39;20071;-57
2021/05/18 01:21:03;;;;;;;10.07;6.95;;;14.70;64.60;;;;;;1488711;39;20056;-56
2021/05/18 01:22:24;;;;;;;7.95;6.72;;;14.70;64.70;;;;;;1489300;39;20032;-56
2021/05/18 01:23:45;;;;;;;7.35;6.18;;;14.70;64.80;;;;;;1491322;39;20062;-54
2021/05/18 01:25:06;;;;;;;6.68;5.97;;;14.70;64.80;;;;;;1491509;39;20113;-56
2021/05/18 01:26:29;;;;;;;6.95;5.78;;;14.70;64.90;;;;;;1489908;39;20105;-57
2021/05/18 01:27:50;;;;;;;6.45;5.28;;;14.70;65.00;;;;;;1489509;39;20040;-57
2021/05/18 01:29:14;;;;;;;6.07;5.43;;;14.60;64.90;;;;;;1488809;39;20040;-57
2021/05/18 01:30:34;;;;;;;6.63;4.88;;;14.60;65.00;;;;;;1490810;39;20419;-57
2021/05/18 01:31:55;;;;;;;5.65;5.05;;;14.70;65.00;;;;;;1489258;39;20040;-56
2021/05/18 01:33:17;;;;;;;5.82;5.28;;;14.60;64.90;;;;;;1490641;39;20155;-55
2021/05/18 01:34:38;;;;;;;6.03;5.28;;;14.60;65.10;;;;;;1491286;39;20030;-55
2021/05/18 01:36:01;;;;;;;6.20;4.65;;;14.60;65.10;;;;;;1491415;39;20039;-57
2021/05/18 01:37:22;;;;;;;4.18;3.80;;;14.60;65.20;;;;;;1490034;39;20275;-55
2021/05/18 01:42:46;;;;;;;3.72;3.42;;;14.60;65.20;;;;;;1492111;39;20040;-56
2021/05/18 01:43:29;;;;;;;;;;;14.60;65.10;;;;;;1488435;39;20027;-56
2021/05/18 01:44:50;;;;;;;3.45;2.72;;;14.60;65.60;;;;;;1489356;39;20324;-56
2021/05/18 01:46:11;;;;;;;3.70;3.40;;;14.60;64.70;;;;;;1490587;39;20039;-57
2021/05/18 01:47:32;;;;;;;3.55;3.17;;;14.60;64.80;;;;;;1491273;39;20345;-54
2021/05/18 01:48:59;;;;;;;3.35;3.05;;;14.60;65.00;;;;;;1491492;39;20340;-56
2021/05/18 01:50:24;;;;;;;3.17;2.88;;;14.60;65.30;;;;;;1491227;39;20046;-56
2021/05/18 01:51:47;;;;;;;3.28;3.00;;;14.60;65.30;;;;;;1491063;39;20416;-56
2021/05/18 01:53:09;;;;;;;3.72;3.38;;;14.60;65.30;;;;;;1490874;39;20024;-55
2021/05/18 01:54:33;;;;;;;3.60;3.30;;;14.60;65.30;;;;;;1489302;39;20030;-56
2021/05/18 01:57:17;;;;;;;3.33;3.03;;;14.60;65.50;;;;;;1489773;39;20027;-53
2021/05/18 01:58:40;;;;;;;4.20;3.28;;;14.60;65.60;;;;;;1489845;39;20036;-55
2021/05/18 02:00:04;;;;;;;3.45;3.13;;;14.50;65.50;;;;;;1490846;39;20039;-56
2021/05/18 02:01:25;;;;;;;2.92;2.70;;;14.50;65.70;;;;;;1490922;39;20249;-55
2021/05/18 02:02:46;;;;;;;3.78;2.90;;;14.50;65.60;;;;;;1490977;39;20332;-56
2021/05/18 02:04:07;;;;;;;3.15;2.80;;;14.50;65.70;;;;;;1490188;39;20112;-55
2021/05/18 02:05:32;;;;;;;3.00;2.70;;;14.50;65.70;;;;;;1491634;39;20019;-55
2021/05/18 02:06:53;;;;;;;2.83;2.63;;;14.50;65.80;;;;;;1490077;39;20362;-55
2021/05/18 02:08:15;;;;;;;2.85;2.65;;;14.50;66.50;;;;;;1488966;39;20032;-54
2021/05/18 02:09:37;;;;;;;2.63;2.42;;;14.50;65.80;;;;;;1490921;39;20260;-54
2021/05/18 02:10:58;;;;;;;2.55;2.35;;;14.50;65.80;;;;;;1490657;39;20028;-53
2021/05/18 02:12:20;;;;;;;2.35;2.15;;;14.50;65.80;;;;;;1490318;39;20372;-55
2021/05/18 02:13:46;;;;;;;3.00;2.80;;;14.50;65.90;;;;;;1491234;39;20044;-55
2021/05/18 02:16:43;;;;;;;4.03;2.25;;;14.50;66.10;;;;;;1489998;39;20036;-55
2021/05/18 02:21:52;;;;;;;2.78;2.35;;;14.50;66.20;;;;;;1490104;39;20049;-56
2021/05/18 02:25:03;;;;;;;2.58;2.38;;;14.40;66.10;;;;;;1488679;39;20039;-56
2021/05/18 02:26:25;;;;;;;2.50;2.30;;;14.50;66.10;;;;;;1490875;39;20057;-55
2021/05/18 02:27:46;;;;;;;2.25;2.15;;;14.50;66.20;;;;;;1490658;39;20131;-56
2021/05/18 02:29:07;;;;;;;2.40;2.20;;;14.40;66.20;;;;;;1489571;39;20025;-55
2021/05/18 02:30:28;;;;;;;2.40;2.20;;;14.40;66.40;;;;;;1488304;39;20101;-55
2021/05/18 02:31:49;;;;;;;2.28;2.08;;;14.40;66.50;;;;;;1490608;39;20038;-55
2021/05/18 02:33:10;;;;;;;3.30;2.60;;;14.50;66.70;;;;;;1489492;39;20024;-55
2021/05/18 02:34:32;;;;;;;3.05;2.60;;;14.50;66.70;;;;;;1491043;39;20047;-56
2021/05/18 02:35:52;;;;;;;2.65;2.45;;;14.40;66.70;;;;;;1489792;39;20043;-55
2021/05/18 02:37:13;;;;;;;3.88;2.50;;;14.50;66.80;;;;;;1490870;39;20363;-54
2021/05/18 02:38:34;;;;;;;2.63;2.42;;;14.50;66.80;;;;;;1488762;39;20141;-55
2021/05/18 02:39:56;;;;;;;3.08;2.60;;;14.50;66.80;;;;;;1491089;39;20042;-54
2021/05/18 02:41:17;;;;;;;2.90;2.42;;;14.50;66.80;;;;;;1490153;39;20035;-54
2021/05/18 02:42:38;;;;;;;2.47;2.28;;;14.50;66.60;;;;;;1491242;39;20044;-55
2021/05/18 02:44:04;;;;;;;2.70;2.50;;;14.50;66.60;;;;;;1489977;39;20036;-57
2021/05/18 02:45:46;;;;;;;2.63;2.42;;;14.50;66.60;;;;;;1490594;39;20036;-56
2021/05/18 02:50:26;;;;;;;3.03;2.17;;;14.50;66.20;;;;;;1491179;39;20079;-56
2021/05/18 02:51:47;;;;;;;3.08;2.58;;;14.50;66.10;;;;;;1489786;39;20032;-54
2021/05/18 02:53:09;;;;;;;3.17;2.97;;;14.50;66.20;;;;;;1490124;39;20121;-55
2021/05/18 02:54:30;;;;;;;3.40;3.10;;;14.50;66.20;;;;;;1485804;39;20035;-56
2021/05/18 02:57:38;;;;;;;3.92;2.85;;;14.50;66.10;;;;;;1490185;39;20152;-55
2021/05/18 02:59:09;;;;;;;3.53;3.22;;;14.40;66.10;;;;;;1490619;39;20045;-56
2021/05/18 03:00:30;;;;;;;3.08;2.78;;;14.40;66.00;;;;;;1491527;39;20422;-55
2021/05/18 03:01:57;;;;;;;3.88;3.20;;;14.40;66.00;;;;;;1487426;40;20031;-57
2021/05/18 03:03:18;;;;;;;3.20;2.90;;;14.40;66.20;;;;;;1488460;39;20029;-55
2021/05/18 03:04:39;;;;;;;3.80;3.42;;;14.40;66.20;;;;;;1491361;39;20038;-56
2021/05/18 03:06:00;;;;;;;3.88;3.30;;;14.40;66.30;;;;;;1490120;39;20341;-54
2021/05/18 03:07:21;;;;;;;3.33;2.95;;;14.40;66.30;;;;;;1491624;39;20074;-51
2021/05/18 03:08:42;;;;;;;4.13;3.40;;;14.40;66.40;;;;;;1491741;39;20276;-55
2021/05/18 03:10:05;;;;;;;5.50;3.60;;;14.40;66.50;;;;;;1491734;39;20024;-56
2021/05/18 03:11:26;;;;;;;3.50;3.20;;;14.40;66.60;;;;;;1490669;39;20073;-55
2021/05/18 03:12:47;;;;;;;5.13;3.67;;;14.40;66.70;;;;;;1490077;39;20040;-54
2021/05/18 03:14:10;;;;;;;5.30;3.58;;;14.40;66.70;;;;;;1491586;39;20020;-56
2021/05/18 03:15:31;;;;;;;4.50;3.78;;;14.40;66.80;;;;;;1491335;39;20024;-55
2021/05/18 03:16:52;;;;;;;4.78;3.85;;;14.40;66.80;;;;;;1490479;39;20032;-57
2021/05/18 03:18:13;;;;;;;4.00;3.60;;;14.40;66.80;;;;;;1492326;39;20024;-56
2021/05/18 03:19:34;;;;;;;5.57;4.00;;;14.40;67.00;;;;;;1492087;39;20036;-55
2021/05/18 03:20:55;;;;;;;4.43;4.03;;;14.40;67.00;;;;;;1490714;39;20061;-58
2021/05/18 03:22:16;;;;;;;6.57;4.75;;;14.40;67.00;;;;;;1490315;39;20039;-55
2021/05/18 03:23:37;;;;;;;6.13;4.10;;;14.40;67.80;;;;;;1487287;40;20028;-56
2021/05/18 03:24:58;;;;;;;6.80;4.35;;;14.40;67.10;;;;;;1489648;39;20027;-56
2021/05/18 03:26:19;;;;;;;7.05;4.13;;;14.40;67.20;;;;;;1491839;39;20032;-55
2021/05/18 03:27:42;;;;;;;6.95;4.38;;;14.50;67.30;;;;;;1489428;39;20077;-57
2021/05/18 03:29:21;;;;;;;6.93;4.78;;;14.40;67.30;;;;;;1488739;39;20057;-55
2021/05/18 03:30:52;;;;;;;7.57;4.30;;;14.40;67.40;;;;;;1489544;39;20469;-54
2021/05/18 03:35:32;;;;;;;6.53;5.07;;;14.50;67.20;;;;;;1489398;39;20108;-57
2021/05/18 03:36:54;;;;;;;8.52;4.57;;;14.50;67.10;;;;;;1489099;39;20040;-56
2021/05/18 03:38:24;;;;;;;5.88;4.55;;;14.50;67.20;;;;;;1491798;39;20389;-55
2021/05/18 03:39:48;;;;;;;8.50;5.07;;;14.50;67.30;;;;;;1489680;39;20408;-55
2021/05/18 03:41:29;;;;;;;7.47;4.82;;;14.50;67.30;;;;;;1490778;39;20036;-54
2021/05/18 03:42:56;;;;;;;6.38;4.63;;;14.50;67.30;;;;;;1491930;39;20075;-55
2021/05/18 03:45:43;;;;;;;16.38;9.23;;;14.50;67.20;;;;;;1490809;39;20343;-55
2021/05/18 03:52:19;;;;;;;9.35;5.55;;;14.60;67.50;;;;;;1491770;39;20048;-56
2021/05/18 03:53:46;;;;;;;8.43;4.53;;;14.60;67.40;;;;;;1490061;39;20028;-57
2021/05/18 04:03:41;;;;;;;7.70;5.03;;;14.50;67.10;;;;;;1491309;39;20269;-55
2021/05/18 04:05:14;;;;;;;6.82;4.68;;;14.50;67.00;;;;;;1490933;39;20366;-56
2021/05/18 04:18:17;;;;;;;8.13;4.65;;;14.50;67.10;;;;;;1488877;39;20036;-52
2021/05/18 04:19:42;;;;;;;7.88;4.88;;;14.50;67.20;;;;;;1489224;39;20042;-54
2021/05/18 04:21:11;;;;;;;10.88;5.57;;;14.50;67.30;;;;;;1489333;39;20032;-55
2021/05/18 04:49:50;;;;;;;8.73;5.45;;;14.60;67.80;;;;;;1490252;39;20036;-56
2021/05/18 04:54:40;;;;;;;8.75;5.55;;;14.50;67.90;;;;;;1489020;39;20355;-56
2021/05/18 04:59:20;;;;;;;10.60;5.40;;;14.60;67.90;;;;;;1483508;39;20031;-55
2021/05/18 05:08:04;;;;;;;9.85;5.60;;;14.60;68.10;;;;;;1490670;39;20043;-56
2021/05/18 05:15:22;;;;;;;9.80;5.32;;;14.50;68.30;;;;;;1488913;39;20125;-57
2021/05/18 05:16:43;;;;;;;10.15;5.88;;;14.60;68.50;;;;;;1491079;39;20032;-56
2021/05/18 05:18:04;;;;;;;12.77;6.60;;;14.60;68.50;;;;;;1490201;39;20031;-56
2021/05/18 05:19:29;;;;;;;10.25;6.75;;;14.60;68.60;;;;;;1491371;39;20027;-55
2021/05/18 05:20:50;;;;;;;8.15;5.35;;;14.60;68.70;;;;;;1491766;39;20031;-55
2021/05/18 05:22:13;;;;;;;11.07;6.55;;;14.60;68.80;;;;;;1491334;39;20019;-54
2021/05/18 05:23:34;;;;;;;9.07;6.18;;;14.60;68.90;;;;;;1491327;39;20043;-57
2021/05/18 05:24:55;;;;;;;11.27;6.47;;;14.60;68.90;;;;;;1491276;39;20035;-56
2021/05/18 05:26:16;;;;;;;11.63;6.15;;;14.60;68.80;;;;;;1491274;39;20062;-56
2021/05/18 05:27:37;;;;;;;9.18;5.68;;;14.60;68.90;;;;;;1491183;39;20133;-55
2021/05/18 05:28:58;;;;;;;10.77;5.93;;;14.60;69.70;;;;;;1488554;39;20027;-56
2021/05/18 05:30:20;;;;;;;10.50;6.50;;;14.60;69.00;;;;;;1490284;39;20089;-56
2021/05/18 05:31:41;;;;;;;9.65;6.07;;;14.60;69.00;;;;;;1490252;39;20056;-55
2021/05/18 05:33:08;;;;;;;;;;;14.70;69.00;;;;;;1492165;39;20535;-55
2021/05/18 05:34:29;;;;;;;10.25;5.78;;;14.70;69.20;;;;;;1490640;39;20028;-52
2021/05/18 05:35:51;;;;;;;9.38;5.60;;;14.70;68.50;;;;;;1490740;39;20039;-53
2021/05/18 05:37:11;;;;;;;9.88;5.90;;;14.70;68.70;;;;;;1491082;39;20035;-55
2021/05/18 05:38:33;;;;;;;14.40;7.10;;;14.70;68.70;;;;;;1492473;39;20120;-55
2021/05/18 05:39:55;;;;;;;7.95;5.53;;;14.70;68.80;;;;;;1496097;39;20027;-56
2021/05/18 05:41:17;;;;;;;9.90;5.63;;;14.70;68.70;;;;;;1496222;39;20038;-55
2021/05/18 05:42:37;;;;;;;11.88;7.15;;;14.70;68.70;;;;;;1494015;39;20024;-54
2021/05/18 05:43:59;;;;;;;11.85;6.45;;;14.70;68.80;;;;;;1493972;39;20624;-56
2021/05/18 05:45:20;;;;;;;10.30;6.53;;;14.70;68.80;;;;;;1494624;39;20116;-57
2021/05/18 05:46:41;;;;;;;15.30;5.97;;;14.70;68.80;;;;;;1494425;39;20026;-57
2021/05/18 05:48:02;;;;;;;9.55;5.65;;;14.70;68.90;;;;;;1495631;39;20034;-56
2021/05/18 05:49:23;;;;;;;10.02;6.32;;;14.70;69.00;;;;;;1495269;39;20299;-58
2021/05/18 05:50:45;;;;;;;7.72;5.72;;;14.70;69.00;;;;;;1494358;39;20065;-56
2021/05/18 05:52:07;;;;;;;9.35;6.43;;;14.70;69.10;;;;;;1494465;39;20070;-58
2021/05/18 05:53:27;;;;;;;7.75;6.13;;;14.70;69.10;;;;;;1495208;39;20082;-57
2021/05/18 05:54:50;;;;;;;11.15;6.78;;;14.70;69.20;;;;;;1493267;39;20027;-57
2021/05/18 05:56:12;;;;;;;10.07;6.53;;;14.70;69.20;;;;;;1495088;39;20027;-57
2021/05/18 05:57:33;;;;;;;10.70;6.38;;;14.70;69.20;;;;;;1495343;39;20098;-56
2021/05/18 05:58:54;;;;;;;10.15;6.70;;;14.70;69.40;;;;;;1495660;39;20043;-53
2021/05/18 06:00:15;;;;;;;13.00;6.32;;;14.70;69.50;;;;;;1496030;39;20024;-56
2021/05/18 06:01:36;;;;;;;13.18;6.68;;;14.70;69.50;;;;;;1495808;39;20046;-57
2021/05/18 06:02:57;;;;;;;11.32;7.03;;;14.70;69.40;;;;;;1494637;39;20027;-56
2021/05/18 06:04:18;;;;;;;9.15;6.13;;;14.70;69.50;;;;;;1495659;39;20024;-57
2021/05/18 06:05:39;;;;;;;7.78;6.25;;;14.80;69.70;;;;;;1496081;39;20047;-55
2021/05/18 06:07:00;;;;;;;8.65;6.80;;;14.80;69.50;;;;;;1496053;39;20023;-56
2021/05/18 06:08:21;;;;;;;10.43;6.55;;;14.80;69.50;;;;;;1496742;39;20034;-56
2021/05/18 06:09:42;;;;;;;12.57;6.68;;;14.80;69.50;;;;;;1496875;39;20097;-56
2021/05/18 06:11:10;;;;;;;10.05;7.20;;;14.80;69.50;;;;;;1496718;39;20105;-57
2021/05/18 06:14:12;;;;;;;12.23;6.78;;;14.90;69.40;;;;;;1498968;39;20109;-58
2021/05/18 06:16:00;;;;;;;10.25;7.05;;;14.90;69.30;;;;;;1497325;39;20022;-55
2021/05/18 06:17:35;;;;;;;11.30;6.82;;;14.90;69.10;;;;;;1497042;39;20067;-55
2021/05/18 06:37:27;;;;;;;13.93;9.15;;;15.10;68.80;;;;;;1495513;39;20252;-55
2021/05/18 06:48:21;;;;;;;13.35;9.23;;;15.20;68.70;;;;;;1492939;39;20083;-58
2021/05/18 06:49:46;;;;;;;12.70;9.30;;;15.20;68.80;;;;;;1492607;39;20039;-58
2021/05/18 06:51:07;;;;;;;13.95;9.35;;;15.20;69.10;;;;;;1490379;39;20032;-58
2021/05/18 06:52:28;;;;;;;13.63;9.43;;;15.20;69.20;;;;;;1494598;39;20101;-59
2021/05/18 06:53:49;;;;;;;14.65;10.02;;;15.20;69.20;;;;;;1491737;39;20036;-57
2021/05/18 06:55:15;;;;;;;12.15;9.65;;;15.30;69.20;;;;;;1494120;39;20046;-57
2021/05/18 06:56:38;;;;;;;14.95;9.93;;;15.30;69.00;;;;;;1493355;39;20139;-57
2021/05/18 06:58:08;;;;;;;13.35;9.57;;;15.20;68.60;;;;;;1491562;39;20046;-57
2021/05/18 07:00:50;;;;;;;12.95;9.13;;;15.30;68.40;;;;;;1490181;39;20058;-57
2021/05/18 07:02:11;;;;;;;13.30;10.13;;;15.30;68.30;;;;;;1493447;39;20023;-57
2021/05/18 07:03:43;;;;;;;14.80;9.32;;;15.30;68.10;;;;;;1493959;39;20047;-56
2021/05/18 07:05:12;;;;;;;14.65;10.18;;;15.40;68.10;;;;;;1489676;39;20058;-56
2021/05/18 07:07:13;;;;;;;17.17;9.55;;;15.40;68.20;;;;;;1493166;39;20027;-56
2021/05/18 07:09:41;;;;;;;13.70;9.27;;;15.40;68.10;;;;;;1496412;39;20054;-58
2021/05/18 07:11:02;;;;;;;13.20;10.18;;;15.40;68.20;;;;;;1490962;39;20043;-58
2021/05/18 07:12:23;;;;;;;15.43;9.70;;;15.40;68.20;;;;;;1488264;39;20024;-55
2021/05/18 07:13:44;;;;;;;15.27;10.40;;;15.40;68.20;;;;;;1493456;39;20031;-57
2021/05/18 07:15:05;;;;;;;15.25;10.30;;;15.40;68.10;;;;;;1497939;39;20027;-56
2021/05/18 07:16:27;;;;;;;13.63;9.45;;;15.50;68.00;;;;;;1496522;39;20288;-56
2021/05/18 07:17:48;;;;;;;14.05;9.85;;;15.50;68.00;;;;;;1494823;39;20039;-55
2021/05/18 07:19:08;;;;;;;14.02;8.85;;;15.50;68.00;;;;;;1496872;39;20023;-57
2021/05/18 07:20:31;;;;;;;14.48;9.88;;;15.50;68.10;;;;;;1496529;39;20038;-57
2021/05/18 07:21:52;;;;;;;14.00;9.95;;;15.50;68.10;;;;;;1496512;39;20123;-59
2021/05/18 07:23:16;;;;;;;13.73;10.32;;;15.50;68.10;;;;;;1496021;39;20081;-57
2021/05/18 07:24:37;;;;;;;14.93;10.45;;;15.50;68.20;;;;;;1496749;39;20046;-57
2021/05/18 07:25:58;;;;;;;12.13;9.77;;;15.50;68.00;;;;;;1495846;39;20047;-57
2021/05/18 07:27:19;;;;;;;12.75;9.65;;;15.50;67.90;;;;;;1497400;39;20338;-57
2021/05/18 07:28:40;;;;;;;12.25;10.07;;;15.50;68.00;;;;;;1495796;39;20053;-56
2021/05/18 07:30:01;;;;;;;14.85;10.13;;;15.60;67.90;;;;;;1495936;39;20039;-57
2021/05/18 07:31:22;;;;;;;13.20;10.35;;;15.60;67.80;;;;;;1496436;39;20050;-57
2021/05/18 07:32:43;;;;;;;13.40;10.02;;;15.60;67.70;;;;;;1494520;39;20079;-55
2021/05/18 07:34:04;;;;;;;14.55;10.65;;;15.60;67.40;;;;;;1497906;39;20046;-58
2021/05/18 07:35:25;;;;;;;13.75;10.75;;;15.60;67.20;;;;;;1496762;39;20031;-58
2021/05/18 07:36:46;;;;;;;12.50;10.48;;;15.60;67.40;;;;;;1498030;39;20049;-57
2021/05/18 07:38:07;;;;;;;13.93;10.35;;;15.60;67.10;;;;;;1495357;39;20039;-57
2021/05/18 07:39:28;;;;;;;15.23;11.02;;;15.60;67.00;;;;;;1496930;39;20059;-57
2021/05/18 07:40:49;;;;;;;15.27;10.23;;;15.50;66.90;;;;;;1496854;39;20324;-56
2021/05/18 07:42:10;;;;;;;14.38;10.27;;;15.50;66.90;;;;;;1497440;39;20034;-57
2021/05/18 07:43:31;;;;;;;16.05;11.18;;;15.60;66.90;;;;;;1496052;39;20043;-59
2021/05/18 07:44:53;;;;;;;18.10;10.75;;;15.50;66.70;;;;;;1495252;39;20027;-57
2021/05/18 07:46:19;;;;;;;17.58;11.82;;;15.50;66.70;;;;;;1497921;39;20392;-58
2021/05/18 07:47:40;;;;;;;17.15;10.63;;;15.50;66.80;;;;;;1494361;39;20039;-58
2021/05/18 07:50:32;;;;;;;21.25;11.13;;;15.50;67.00;;;;;;1495830;39;20083;-58
2021/05/18 08:05:29;;;;;;;16.40;10.15;;;15.60;67.30;;;;;;1475995;39;20048;-58
2021/05/18 08:06:49;;;;;;;15.57;10.98;;;15.70;67.40;;;;;;1495723;39;20043;-57
2021/05/18 08:08:11;;;;;;;14.77;11.45;;;15.70;67.30;;;;;;1495203;39;20234;-59
2021/05/18 08:09:35;;;;;;;15.15;11.70;;;15.70;67.50;;;;;;1494841;39;20061;-59
2021/05/18 08:11:01;;;;;;;16.95;12.38;;;15.70;67.80;;;;;;1495437;39;20030;-59
2021/05/18 08:12:22;;;;;;;15.02;11.48;;;15.80;67.80;;;;;;1496668;39;20284;-59
2021/05/18 08:13:43;;;;;;;17.65;12.73;;;15.80;67.80;;;;;;1498050;39;20039;-59
2021/05/18 08:16:57;;;;;;;16.02;12.32;;;15.90;67.60;;;;;;1496338;39;20031;-59
2021/05/18 08:18:45;;;;;;;15.50;11.90;;;16.00;67.90;;;;;;1495372;39;20042;-58
2021/05/18 08:21:41;;;;;;;15.77;12.05;;;16.00;67.60;;;;;;1497625;39;20039;-59
2021/05/18 08:46:59;;;;;;;11.82;9.13;;;16.70;65.00;;;;;;1495613;39;20059;-58
2021/05/18 09:37:37;;;;;;;7.93;6.25;;;17.50;59.70;;;;;;1493849;39;20147;-58
2021/05/18 10:22:26;;;;;;;5.97;5.25;;;18.20;57.40;;;;;;1497096;39;20051;-59
2021/05/18 10:34:55;;;;;;;5.00;4.53;;;18.70;56.00;;;;;;1493769;39;20036;-57
2021/05/18 10:36:42;;;;;;;5.10;4.60;;;18.80;56.20;;;;;;1496091;39;20066;-59
2021/05/18 10:38:06;;;;;;;4.47;4.07;;;18.80;55.20;;;;;;1494001;39;20057;-59
2021/05/18 10:39:29;;;;;;;4.35;3.97;;;18.90;55.70;;;;;;1496862;39;20057;-59
2021/05/18 10:40:53;;;;;;;4.53;4.13;;;18.90;55.30;;;;;;1499504;39;20046;-60
2021/05/18 10:42:14;;;;;;;5.20;4.32;;;19.00;54.90;;;;;;1494962;39;20023;-59
2021/05/18 10:43:36;;;;;;;4.40;4.03;;;19.10;55.00;;;;;;1495817;39;20037;-59
2021/05/18 10:44:57;;;;;;;5.95;4.05;;;19.10;55.00;;;;;;1497702;39;20027;-59
2021/05/18 10:46:23;;;;;;;4.72;4.15;;;19.20;54.90;;;;;;1494595;39;20186;-59
2021/05/18 10:47:45;;;;;;;4.65;4.25;;;19.20;54.60;;;;;;1496728;39;20119;-58
2021/05/18 10:49:08;;;;;;;4.43;4.03;;;19.30;54.30;;;;;;1497674;39;20038;-59
2021/05/18 10:50:41;;;;;;;4.05;3.67;;;19.30;54.30;;;;;;1496622;39;20035;-59
2021/05/18 10:52:08;;;;;;;3.72;3.42;;;19.40;53.90;;;;;;1497854;39;20031;-59
2021/05/18 10:53:29;;;;;;;3.50;3.30;;;19.50;54.10;;;;;;1496387;39;20019;-58
2021/05/18 10:54:59;;;;;;;3.88;3.58;;;19.50;54.40;;;;;;1497062;39;20050;-58
2021/05/18 10:56:19;;;;;;;3.50;3.30;;;19.60;53.70;;;;;;1497178;39;20111;-59
2021/05/18 10:57:40;;;;;;;3.40;3.10;;;19.70;54.30;;;;;;1496752;39;20039;-58
2021/05/18 10:59:17;;;;;;;4.05;3.00;;;19.80;53.80;;;;;;1497134;39;20027;-58
2021/05/18 11:00:38;;;;;;;3.47;3.20;;;19.90;52.80;;;;;;1496223;39;20058;-59
2021/05/18 11:02:12;;;;;;;3.58;3.30;;;20.00;51.90;;;;;;1496912;39;20041;-59
2021/05/18 11:03:35;;;;;;;3.38;3.05;;;20.10;52.20;;;;;;1497601;39;20035;-59
2021/05/18 11:05:05;;;;;;;4.35;3.60;;;20.20;51.80;;;;;;1494955;39;20296;-59
2021/05/18 11:06:28;;;;;;;3.40;3.20;;;20.30;52.00;;;;;;1496818;39;20391;-59
2021/05/18 11:07:48;;;;;;;6.68;4.00;;;20.30;52.20;;;;;;1496445;39;20039;-59
2021/05/18 11:09:17;;;;;;;3.95;3.30;;;20.40;52.10;;;;;;1496588;39;20271;-59
2021/05/18 11:10:39;;;;;;;3.47;3.17;;;20.50;51.30;;;;;;1498404;39;20156;-59
2021/05/18 11:12:21;;;;;;;3.83;3.28;;;20.50;51.70;;;;;;1494521;39;20035;-59
2021/05/18 11:13:53;;;;;;;3.85;3.45;;;20.60;50.70;;;;;;1494583;39;20542;-59
2021/05/18 11:15:24;;;;;;;3.35;3.15;;;20.70;50.50;;;;;;1497485;39;20056;-59
2021/05/18 11:17:25;;;;;;;3.85;3.55;;;20.70;50.40;;;;;;1496388;39;20030;-59
2021/05/18 11:18:49;;;;;;;3.80;3.50;;;20.80;50.20;;;;;;1497387;39;20039;-59
2021/05/18 11:20:26;;;;;;;3.63;3.33;;;20.80;50.90;;;;;;1494862;39;20027;-59
2021/05/18 11:21:58;;;;;;;3.50;3.20;;;20.80;50.60;;;;;;1491026;39;20055;-59
2021/05/18 11:23:23;;;;;;;4.22;3.50;;;20.90;50.40;;;;;;1496213;39;20030;-59
2021/05/18 11:24:50;;;;;;;3.83;3.40;;;20.90;50.50;;;;;;1497177;39;20126;-59
2021/05/18 11:26:12;;;;;;;3.20;3.00;;;21.10;50.00;;;;;;1496944;39;20500;-59
2021/05/18 11:27:34;;;;;;;3.33;3.10;;;21.10;50.40;;;;;;1497074;39;20035;-59
2021/05/18 11:28:55;;;;;;;3.50;3.15;;;21.10;49.60;;;;;;1495557;39;20047;-59
2021/05/18 11:30:26;;;;;;;3.42;3.13;;;21.10;49.20;;;;;;1497122;39;20027;-59
2021/05/18 11:31:47;;;;;;;3.22;3.03;;;21.10;47.90;;;;;;1496540;39;20050;-59
2021/05/18 11:33:08;;;;;;;3.22;2.92;;;21.20;48.70;;;;;;1494865;39;20051;-59
2021/05/18 11:34:29;;;;;;;3.60;3.30;;;21.10;48.60;;;;;;1497554;39;20027;-59
2021/05/18 11:36:04;;;;;;;4.22;3.63;;;21.10;48.50;;;;;;1494418;39;20039;-59
2021/05/18 11:37:29;;;;;;;3.95;3.58;;;21.10;48.00;;;;;;1490677;39;20023;-59
2021/05/18 11:38:55;;;;;;;5.20;3.50;;;21.20;48.50;;;;;;1494290;39;20039;-59
2021/05/18 11:40:17;;;;;;;4.50;3.22;;;21.10;48.60;;;;;;1497164;39;20184;-59
2021/05/18 11:41:41;;;;;;;4.10;3.75;;;21.10;48.60;;;;;;1493672;39;20038;-59
2021/05/18 11:43:16;;;;;;;3.38;3.05;;;21.10;48.50;;;;;;1496323;39;20208;-59
2021/05/18 11:44:41;;;;;;;3.50;3.20;;;21.10;47.40;;;;;;1494948;39;20123;-59
2021/05/18 11:46:11;;;;;;;3.10;2.80;;;21.20;48.10;;;;;;1495755;39;20035;-59
2021/05/18 11:47:32;;;;;;;3.42;3.22;;;21.20;47.60;;;;;;1497095;39;20289;-59
2021/05/18 11:48:59;;;;;;;3.72;3.25;;;21.20;48.20;;;;;;1489503;39;20051;-59
2021/05/18 11:50:25;;;;;;;3.17;2.97;;;21.30;47.80;;;;;;1496384;39;20035;-59
2021/05/18 11:51:48;;;;;;;3.33;2.90;;;21.30;47.60;;;;;;1496033;39;20050;-59